sensor_id;sensor_type;location;lat;lon;timestamp;temperature;humidity
68248;SHT30;55064;49.636;12.164;2024-01-06T00:00:17;3.34;99.55
68248;SHT30;55064;49.636;12.164;2024-01-06T00:02:43;3.35;99.48
68248;SHT30;55064;49.636;12.164;2024-01-06T00:05:08;3.34;99.52
68248;SHT30;55064;49.636;12.164;2024-01-06T00:07:34;3.34;99.42
68248;SHT30;55064;49.636;12.164;2024-01-06T00:09:59;3.34;99.40
68248;SHT30;55064;49.636;12.164;2024-01-06T00:12:24;3.36;99.36
68248;SHT30;55064;49.636;12.164;2024-01-06T00:14:50;3.49;98.91
68248;SHT30;55064;49.636;12.164;2024-01-06T00:17:16;3.40;98.58
68248;SHT30;55064;49.636;12.164;2024-01-06T00:19:41;3.40;98.77
68248;SHT30;55064;49.636;12.164;2024-01-06T00:22:07;3.39;98.78
68248;SHT30;55064;49.636;12.164;2024-01-06T00:24:33;3.35;98.90
68248;SHT30;55064;49.636;12.164;2024-01-06T00:26:58;3.32;99.06
68248;SHT30;55064;49.636;12.164;2024-01-06T00:29:24;3.32;99.10
68248;SHT30;55064;49.636;12.164;2024-01-06T00:31:49;3.31;99.42
68248;SHT30;55064;49.636;12.164;2024-01-06T00:34:14;3.34;99.32
68248;SHT30;55064;49.636;12.164;2024-01-06T00:36:40;3.31;99.34
68248;SHT30;55064;49.636;12.164;2024-01-06T00:39:05;3.31;99.42
68248;SHT30;55064;49.636;12.164;2024-01-06T00:41:30;3.32;99.38
68248;SHT30;55064;49.636;12.164;2024-01-06T00:43:57;3.29;99.47
68248;SHT30;55064;49.636;12.164;2024-01-06T00:46:22;3.28;99.53
68248;SHT30;55064;49.636;12.164;2024-01-06T00:48:48;3.27;99.71
68248;SHT30;55064;49.636;12.164;2024-01-06T00:51:13;3.25;99.70
68248;SHT30;55064;49.636;12.164;2024-01-06T00:53:38;3.27;99.84
68248;SHT30;55064;49.636;12.164;2024-01-06T00:56:04;3.28;99.89
68248;SHT30;55064;49.636;12.164;2024-01-06T00:58:29;3.27;99.80
68248;SHT30;55064;49.636;12.164;2024-01-06T01:00:55;3.35;99.71
68248;SHT30;55064;49.636;12.164;2024-01-06T01:03:20;3.32;99.48
68248;SHT30;55064;49.636;12.164;2024-01-06T01:05:45;3.32;99.35
68248;SHT30;55064;49.636;12.164;2024-01-06T01:08:11;3.29;99.16
68248;SHT30;55064;49.636;12.164;2024-01-06T01:10:36;3.29;99.06
68248;SHT30;55064;49.636;12.164;2024-01-06T01:13:02;3.24;99.00
68248;SHT30;55064;49.636;12.164;2024-01-06T01:15:27;3.17;99.13
68248;SHT30;55064;49.636;12.164;2024-01-06T01:17:52;3.12;99.26
68248;SHT30;55064;49.636;12.164;2024-01-06T01:20:18;3.12;99.27
68248;SHT30;55064;49.636;12.164;2024-01-06T01:22:43;3.21;99.23
68248;SHT30;55064;49.636;12.164;2024-01-06T01:25:09;3.27;98.88
68248;SHT30;55064;49.636;12.164;2024-01-06T01:27:35;3.21;99.02
68248;SHT30;55064;49.636;12.164;2024-01-06T01:30:00;3.15;99.11
68248;SHT30;55064;49.636;12.164;2024-01-06T01:32:28;3.11;99.19
68248;SHT30;55064;49.636;12.164;2024-01-06T01:34:53;3.08;99.32
68248;SHT30;55064;49.636;12.164;2024-01-06T01:37:20;3.05;99.36
68248;SHT30;55064;49.636;12.164;2024-01-06T01:39:45;3.05;99.39
68248;SHT30;55064;49.636;12.164;2024-01-06T01:42:10;3.07;99.36
68248;SHT30;55064;49.636;12.164;2024-01-06T01:44:36;3.04;99.32
68248;SHT30;55064;49.636;12.164;2024-01-06T01:47:05;3.05;99.31
68248;SHT30;55064;49.636;12.164;2024-01-06T01:49:31;3.01;99.35
68248;SHT30;55064;49.636;12.164;2024-01-06T01:51:58;3.03;99.34
68248;SHT30;55064;49.636;12.164;2024-01-06T01:54:23;3.03;99.35
68248;SHT30;55064;49.636;12.164;2024-01-06T01:56:49;3.05;99.26
68248;SHT30;55064;49.636;12.164;2024-01-06T01:59:17;3.10;98.97
68248;SHT30;55064;49.636;12.164;2024-01-06T02:01:43;3.15;98.69
68248;SHT30;55064;49.636;12.164;2024-01-06T02:04:09;3.11;98.66
68248;SHT30;55064;49.636;12.164;2024-01-06T02:06:34;3.04;98.95
68248;SHT30;55064;49.636;12.164;2024-01-06T02:09:00;3.00;99.15
68248;SHT30;55064;49.636;12.164;2024-01-06T02:11:26;3.00;99.50
68248;SHT30;55064;49.636;12.164;2024-01-06T02:13:51;2.99;99.50
68248;SHT30;55064;49.636;12.164;2024-01-06T02:16:16;2.97;99.57
68248;SHT30;55064;49.636;12.164;2024-01-06T02:18:42;3.01;99.57
68248;SHT30;55064;49.636;12.164;2024-01-06T02:21:07;3.00;99.39
68248;SHT30;55064;49.636;12.164;2024-01-06T02:23:35;2.99;99.50
68248;SHT30;55064;49.636;12.164;2024-01-06T02:26:01;3.01;99.45
68248;SHT30;55064;49.636;12.164;2024-01-06T02:28:26;3.10;99.07
68248;SHT30;55064;49.636;12.164;2024-01-06T02:30:52;3.14;99.02
68248;SHT30;55064;49.636;12.164;2024-01-06T02:33:17;3.10;98.72
68248;SHT30;55064;49.636;12.164;2024-01-06T02:35:47;3.07;98.72
68248;SHT30;55064;49.636;12.164;2024-01-06T02:38:12;3.00;98.93
68248;SHT30;55064;49.636;12.164;2024-01-06T02:40:38;2.94;99.25
68248;SHT30;55064;49.636;12.164;2024-01-06T02:43:03;2.90;99.49
68248;SHT30;55064;49.636;12.164;2024-01-06T02:45:29;2.89;99.55
68248;SHT30;55064;49.636;12.164;2024-01-06T02:47:54;2.90;99.57
68248;SHT30;55064;49.636;12.164;2024-01-06T02:50:20;2.89;99.67
68248;SHT30;55064;49.636;12.164;2024-01-06T02:52:45;2.91;99.60
68248;SHT30;55064;49.636;12.164;2024-01-06T02:55:11;2.87;99.48
68248;SHT30;55064;49.636;12.164;2024-01-06T02:57:37;2.93;99.42
68248;SHT30;55064;49.636;12.164;2024-01-06T03:00:02;2.94;98.99
68248;SHT30;55064;49.636;12.164;2024-01-06T03:02:28;2.91;98.60
68248;SHT30;55064;49.636;12.164;2024-01-06T03:04:54;2.90;98.73
68248;SHT30;55064;49.636;12.164;2024-01-06T03:07:20;2.89;98.67
68248;SHT30;55064;49.636;12.164;2024-01-06T03:09:46;2.83;98.90
68248;SHT30;55064;49.636;12.164;2024-01-06T03:12:11;2.75;99.22
68248;SHT30;55064;49.636;12.164;2024-01-06T03:14:37;2.70;99.63
68248;SHT30;55064;49.636;12.164;2024-01-06T03:17:03;2.67;99.84
68248;SHT30;55064;49.636;12.164;2024-01-06T03:19:30;2.69;99.84
68248;SHT30;55064;49.636;12.164;2024-01-06T03:21:56;2.67;99.88
68248;SHT30;55064;49.636;12.164;2024-01-06T03:24:23;2.69;99.98
68248;SHT30;55064;49.636;12.164;2024-01-06T03:26:48;2.69;99.79
68248;SHT30;55064;49.636;12.164;2024-01-06T03:29:14;2.72;99.91
68248;SHT30;55064;49.636;12.164;2024-01-06T03:31:43;2.66;99.98
68248;SHT30;55064;49.636;12.164;2024-01-06T03:34:09;2.64;99.99
68248;SHT30;55064;49.636;12.164;2024-01-06T03:36:39;2.62;99.93
68248;SHT30;55064;49.636;12.164;2024-01-06T03:39:05;2.63;99.99
68248;SHT30;55064;49.636;12.164;2024-01-06T03:41:31;2.63;99.99
68248;SHT30;55064;49.636;12.164;2024-01-06T03:43:56;2.63;99.99
68248;SHT30;55064;49.636;12.164;2024-01-06T03:46:22;2.60;99.99
68248;SHT30;55064;49.636;12.164;2024-01-06T03:48:48;2.63;99.99
68248;SHT30;55064;49.636;12.164;2024-01-06T03:51:13;2.63;99.99
68248;SHT30;55064;49.636;12.164;2024-01-06T03:53:38;2.66;99.99
68248;SHT30;55064;49.636;12.164;2024-01-06T03:56:05;2.60;99.93
68248;SHT30;55064;49.636;12.164;2024-01-06T03:58:30;2.62;99.88
68248;SHT30;55064;49.636;12.164;2024-01-06T04:00:56;2.63;99.76
68248;SHT30;55064;49.636;12.164;2024-01-06T04:03:21;2.73;99.42
68248;SHT30;55064;49.636;12.164;2024-01-06T04:05:46;2.63;99.28
68248;SHT30;55064;49.636;12.164;2024-01-06T04:08:12;2.60;99.59
68248;SHT30;55064;49.636;12.164;2024-01-06T04:10:37;2.57;99.83
68248;SHT30;55064;49.636;12.164;2024-01-06T04:13:03;2.57;99.87
68248;SHT30;55064;49.636;12.164;2024-01-06T04:15:28;2.57;99.92
68248;SHT30;55064;49.636;12.164;2024-01-06T04:17:54;2.59;99.98
68248;SHT30;55064;49.636;12.164;2024-01-06T04:20:19;2.56;99.92
68248;SHT30;55064;49.636;12.164;2024-01-06T04:22:45;2.57;99.89
68248;SHT30;55064;49.636;12.164;2024-01-06T04:25:10;2.59;99.75
68248;SHT30;55064;49.636;12.164;2024-01-06T04:27:35;2.59;99.65
68248;SHT30;55064;49.636;12.164;2024-01-06T04:30:01;2.62;99.46
68248;SHT30;55064;49.636;12.164;2024-01-06T04:32:27;2.67;99.23
68248;SHT30;55064;49.636;12.164;2024-01-06T04:34:52;2.62;99.13
68248;SHT30;55064;49.636;12.164;2024-01-06T04:37:17;2.53;99.38
68248;SHT30;55064;49.636;12.164;2024-01-06T04:39:43;2.50;99.62
68248;SHT30;55064;49.636;12.164;2024-01-06T04:42:08;2.46;99.99
68248;SHT30;55064;49.636;12.164;2024-01-06T04:44:33;2.46;99.99
68248;SHT30;55064;49.636;12.164;2024-01-06T04:46:59;2.49;99.99
68248;SHT30;55064;49.636;12.164;2024-01-06T04:49:24;2.49;99.99
68248;SHT30;55064;49.636;12.164;2024-01-06T04:51:50;2.50;99.99
68248;SHT30;55064;49.636;12.164;2024-01-06T04:54:15;2.52;99.99
68248;SHT30;55064;49.636;12.164;2024-01-06T04:56:40;2.52;99.99
68248;SHT30;55064;49.636;12.164;2024-01-06T04:59:06;2.55;99.97
68248;SHT30;55064;49.636;12.164;2024-01-06T05:01:31;2.53;99.92
68248;SHT30;55064;49.636;12.164;2024-01-06T05:03:57;2.53;99.96
68248;SHT30;55064;49.636;12.164;2024-01-06T05:06:23;2.53;99.99
68248;SHT30;55064;49.636;12.164;2024-01-06T05:08:48;2.55;99.96
68248;SHT30;55064;49.636;12.164;2024-01-06T05:11:14;2.52;99.94
68248;SHT30;55064;49.636;12.164;2024-01-06T05:13:39;2.55;99.94
68248;SHT30;55064;49.636;12.164;2024-01-06T05:16:05;2.52;99.99
68248;SHT30;55064;49.636;12.164;2024-01-06T05:18:30;2.52;99.99
68248;SHT30;55064;49.636;12.164;2024-01-06T05:20:56;2.53;99.99
68248;SHT30;55064;49.636;12.164;2024-01-06T05:23:22;2.53;99.99
68248;SHT30;55064;49.636;12.164;2024-01-06T05:25:47;2.55;99.97
68248;SHT30;55064;49.636;12.164;2024-01-06T05:28:12;2.53;99.93
68248;SHT30;55064;49.636;12.164;2024-01-06T05:30:38;2.55;99.94
68248;SHT30;55064;49.636;12.164;2024-01-06T05:33:03;2.64;99.79
68248;SHT30;55064;49.636;12.164;2024-01-06T05:35:29;2.57;99.33
68248;SHT30;55064;49.636;12.164;2024-01-06T05:37:54;2.53;99.63
68248;SHT30;55064;49.636;12.164;2024-01-06T05:40:20;2.50;99.83
68248;SHT30;55064;49.636;12.164;2024-01-06T05:42:45;2.50;99.96
68248;SHT30;55064;49.636;12.164;2024-01-06T05:45:11;2.49;99.99
68248;SHT30;55064;49.636;12.164;2024-01-06T05:47:39;2.48;99.98
68248;SHT30;55064;49.636;12.164;2024-01-06T05:50:05;2.49;99.96
68248;SHT30;55064;49.636;12.164;2024-01-06T05:52:31;2.48;99.93
68248;SHT30;55064;49.636;12.164;2024-01-06T05:54:56;2.48;99.95
68248;SHT30;55064;49.636;12.164;2024-01-06T05:57:23;2.49;99.92
68248;SHT30;55064;49.636;12.164;2024-01-06T05:59:48;2.46;99.99
68248;SHT30;55064;49.636;12.164;2024-01-06T06:02:14;2.45;99.88
68248;SHT30;55064;49.636;12.164;2024-01-06T06:04:39;2.44;99.82
68248;SHT30;55064;49.636;12.164;2024-01-06T06:07:05;2.44;99.95
68248;SHT30;55064;49.636;12.164;2024-01-06T06:09:30;2.44;99.99
68248;SHT30;55064;49.636;12.164;2024-01-06T06:11:55;2.42;99.99
68248;SHT30;55064;49.636;12.164;2024-01-06T06:14:21;2.41;99.99
68248;SHT30;55064;49.636;12.164;2024-01-06T06:16:47;2.41;99.99
68248;SHT30;55064;49.636;12.164;2024-01-06T06:19:13;2.45;99.98
68248;SHT30;55064;49.636;12.164;2024-01-06T06:21:38;2.42;99.86
68248;SHT30;55064;49.636;12.164;2024-01-06T06:24:04;2.38;99.99
68248;SHT30;55064;49.636;12.164;2024-01-06T06:26:29;2.36;99.96
68248;SHT30;55064;49.636;12.164;2024-01-06T06:28:55;2.34;99.98
68248;SHT30;55064;49.636;12.164;2024-01-06T06:31:20;2.31;99.95
68248;SHT30;55064;49.636;12.164;2024-01-06T06:33:46;2.28;99.90
68248;SHT30;55064;49.636;12.164;2024-01-06T06:36:11;2.25;99.99
68248;SHT30;55064;49.636;12.164;2024-01-06T06:38:36;2.24;99.99
68248;SHT30;55064;49.636;12.164;2024-01-06T06:41:02;2.20;99.99
68248;SHT30;55064;49.636;12.164;2024-01-06T06:43:27;2.13;99.99
68248;SHT30;55064;49.636;12.164;2024-01-06T06:45:53;2.14;99.99
68248;SHT30;55064;49.636;12.164;2024-01-06T06:48:20;2.14;99.99
68248;SHT30;55064;49.636;12.164;2024-01-06T06:50:46;2.06;99.99
68248;SHT30;55064;49.636;12.164;2024-01-06T06:53:11;2.08;99.99
68248;SHT30;55064;49.636;12.164;2024-01-06T06:55:38;2.07;99.99
68248;SHT30;55064;49.636;12.164;2024-01-06T06:58:04;2.04;99.99
68248;SHT30;55064;49.636;12.164;2024-01-06T07:00:30;2.03;99.99
68248;SHT30;55064;49.636;12.164;2024-01-06T07:02:55;2.06;99.99
68248;SHT30;55064;49.636;12.164;2024-01-06T07:05:21;2.06;99.99
68248;SHT30;55064;49.636;12.164;2024-01-06T07:07:46;2.07;99.99
68248;SHT30;55064;49.636;12.164;2024-01-06T07:10:12;2.08;99.99
68248;SHT30;55064;49.636;12.164;2024-01-06T07:12:38;2.07;99.99
68248;SHT30;55064;49.636;12.164;2024-01-06T07:15:03;2.08;99.99
68248;SHT30;55064;49.636;12.164;2024-01-06T07:17:29;2.08;99.99
68248;SHT30;55064;49.636;12.164;2024-01-06T07:19:54;2.06;99.99
68248;SHT30;55064;49.636;12.164;2024-01-06T07:22:20;2.10;99.99
68248;SHT30;55064;49.636;12.164;2024-01-06T07:24:45;2.04;99.99
68248;SHT30;55064;49.636;12.164;2024-01-06T07:27:11;2.06;99.99
68248;SHT30;55064;49.636;12.164;2024-01-06T07:29:37;2.08;99.99
68248;SHT30;55064;49.636;12.164;2024-01-06T07:32:04;2.07;99.99
68248;SHT30;55064;49.636;12.164;2024-01-06T07:34:31;2.07;99.99
68248;SHT30;55064;49.636;12.164;2024-01-06T07:36:56;2.07;99.99
68248;SHT30;55064;49.636;12.164;2024-01-06T07:39:22;2.13;99.99
68248;SHT30;55064;49.636;12.164;2024-01-06T07:41:49;2.14;99.99
68248;SHT30;55064;49.636;12.164;2024-01-06T07:44:15;2.15;99.99
68248;SHT30;55064;49.636;12.164;2024-01-06T07:46:41;2.22;99.99
68248;SHT30;55064;49.636;12.164;2024-01-06T07:49:06;2.24;99.99
68248;SHT30;55064;49.636;12.164;2024-01-06T07:51:32;2.25;99.99
68248;SHT30;55064;49.636;12.164;2024-01-06T07:54:00;2.26;99.99
68248;SHT30;55064;49.636;12.164;2024-01-06T07:56:25;2.26;99.99
68248;SHT30;55064;49.636;12.164;2024-01-06T07:58:52;2.31;99.99
68248;SHT30;55064;49.636;12.164;2024-01-06T08:01:18;2.31;99.99
68248;SHT30;55064;49.636;12.164;2024-01-06T08:03:43;2.41;99.99
68248;SHT30;55064;49.636;12.164;2024-01-06T08:06:10;2.42;99.99
68248;SHT30;55064;49.636;12.164;2024-01-06T08:08:35;2.44;99.99
68248;SHT30;55064;49.636;12.164;2024-01-06T08:11:01;2.52;99.99
68248;SHT30;55064;49.636;12.164;2024-01-06T08:13:26;2.57;99.99
68248;SHT30;55064;49.636;12.164;2024-01-06T08:15:51;2.57;99.99
68248;SHT30;55064;49.636;12.164;2024-01-06T08:18:17;2.53;99.99
68248;SHT30;55064;49.636;12.164;2024-01-06T08:20:43;2.52;99.99
68248;SHT30;55064;49.636;12.164;2024-01-06T08:23:08;2.53;99.99
68248;SHT30;55064;49.636;12.164;2024-01-06T08:25:34;2.57;99.99
68248;SHT30;55064;49.636;12.164;2024-01-06T08:27:59;2.56;99.99
68248;SHT30;55064;49.636;12.164;2024-01-06T08:30:24;2.55;99.99
68248;SHT30;55064;49.636;12.164;2024-01-06T08:32:50;2.57;99.99
68248;SHT30;55064;49.636;12.164;2024-01-06T08:35:15;2.57;99.99
68248;SHT30;55064;49.636;12.164;2024-01-06T08:37:42;2.59;99.99
68248;SHT30;55064;49.636;12.164;2024-01-06T08:40:08;2.60;99.99
68248;SHT30;55064;49.636;12.164;2024-01-06T08:42:34;2.62;99.99
68248;SHT30;55064;49.636;12.164;2024-01-06T08:44:59;2.60;99.99
68248;SHT30;55064;49.636;12.164;2024-01-06T08:47:25;2.72;99.99
68248;SHT30;55064;49.636;12.164;2024-01-06T08:49:50;2.79;99.99
68248;SHT30;55064;49.636;12.164;2024-01-06T08:52:15;2.77;99.99
68248;SHT30;55064;49.636;12.164;2024-01-06T08:54:41;2.73;99.99
68248;SHT30;55064;49.636;12.164;2024-01-06T08:57:06;2.62;99.99
68248;SHT30;55064;49.636;12.164;2024-01-06T08:59:32;2.55;99.99
68248;SHT30;55064;49.636;12.164;2024-01-06T09:01:57;2.55;99.99
68248;SHT30;55064;49.636;12.164;2024-01-06T09:04:22;2.59;99.99
68248;SHT30;55064;49.636;12.164;2024-01-06T09:06:48;2.70;99.99
68248;SHT30;55064;49.636;12.164;2024-01-06T09:09:13;2.79;99.99
68248;SHT30;55064;49.636;12.164;2024-01-06T09:11:39;2.70;99.99
68248;SHT30;55064;49.636;12.164;2024-01-06T09:14:04;2.73;99.99
68248;SHT30;55064;49.636;12.164;2024-01-06T09:16:29;2.76;99.99
68248;SHT30;55064;49.636;12.164;2024-01-06T09:18:55;2.76;99.99
68248;SHT30;55064;49.636;12.164;2024-01-06T09:21:20;2.80;99.99
68248;SHT30;55064;49.636;12.164;2024-01-06T09:23:45;2.81;99.99
68248;SHT30;55064;49.636;12.164;2024-01-06T09:26:11;2.81;99.99
68248;SHT30;55064;49.636;12.164;2024-01-06T09:28:36;2.80;99.99
68248;SHT30;55064;49.636;12.164;2024-01-06T09:31:02;2.76;99.99
68248;SHT30;55064;49.636;12.164;2024-01-06T09:33:27;2.81;99.99
68248;SHT30;55064;49.636;12.164;2024-01-06T09:35:53;2.80;99.99
68248;SHT30;55064;49.636;12.164;2024-01-06T09:38:18;2.89;99.99
68248;SHT30;55064;49.636;12.164;2024-01-06T09:40:44;2.90;99.99
68248;SHT30;55064;49.636;12.164;2024-01-06T09:43:11;2.90;99.99
68248;SHT30;55064;49.636;12.164;2024-01-06T09:45:38;2.96;99.99
68248;SHT30;55064;49.636;12.164;2024-01-06T09:48:10;2.99;99.99
68248;SHT30;55064;49.636;12.164;2024-01-06T09:50:38;3.04;99.99
68248;SHT30;55064;49.636;12.164;2024-01-06T09:53:04;3.03;99.99
68248;SHT30;55064;49.636;12.164;2024-01-06T09:55:32;3.01;99.99
68248;SHT30;55064;49.636;12.164;2024-01-06T09:57:57;3.04;99.99
68248;SHT30;55064;49.636;12.164;2024-01-06T10:00:22;3.07;99.99
68248;SHT30;55064;49.636;12.164;2024-01-06T10:02:50;3.04;99.99
68248;SHT30;55064;49.636;12.164;2024-01-06T10:05:20;3.03;99.99
68248;SHT30;55064;49.636;12.164;2024-01-06T10:07:46;3.10;99.99
68248;SHT30;55064;49.636;12.164;2024-01-06T10:10:12;3.10;99.99
68248;SHT30;55064;49.636;12.164;2024-01-06T10:12:38;3.11;99.99
68248;SHT30;55064;49.636;12.164;2024-01-06T10:15:08;3.08;99.99
68248;SHT30;55064;49.636;12.164;2024-01-06T10:17:39;3.10;99.99
68248;SHT30;55064;49.636;12.164;2024-01-06T10:20:12;3.15;99.99
68248;SHT30;55064;49.636;12.164;2024-01-06T10:22:40;3.21;99.96
68248;SHT30;55064;49.636;12.164;2024-01-06T10:25:07;3.24;99.99
68248;SHT30;55064;49.636;12.164;2024-01-06T10:27:40;3.24;99.82
68248;SHT30;55064;49.636;12.164;2024-01-06T10:30:07;3.25;99.93
68248;SHT30;55064;49.636;12.164;2024-01-06T10:32:33;3.29;99.59
68248;SHT30;55064;49.636;12.164;2024-01-06T10:35:00;3.29;99.31
68248;SHT30;55064;49.636;12.164;2024-01-06T10:37:29;3.29;99.56
68248;SHT30;55064;49.636;12.164;2024-01-06T10:40:12;3.28;99.54
68248;SHT30;55064;49.636;12.164;2024-01-06T10:42:39;3.31;99.40
68248;SHT30;55064;49.636;12.164;2024-01-06T10:45:09;3.34;99.12
68248;SHT30;55064;49.636;12.164;2024-01-06T10:47:38;3.34;99.04
68248;SHT30;55064;49.636;12.164;2024-01-06T10:50:04;3.27;99.38
68248;SHT30;55064;49.636;12.164;2024-01-06T10:52:30;3.29;99.63
68248;SHT30;55064;49.636;12.164;2024-01-06T10:54:57;3.35;99.42
68248;SHT30;55064;49.636;12.164;2024-01-06T10:57:23;3.32;99.32
68248;SHT30;55064;49.636;12.164;2024-01-06T10:59:50;3.38;99.48
68248;SHT30;55064;49.636;12.164;2024-01-06T11:02:16;3.40;99.41
68248;SHT30;55064;49.636;12.164;2024-01-06T11:04:44;3.43;99.56
68248;SHT30;55064;49.636;12.164;2024-01-06T11:07:10;3.45;99.58
68248;SHT30;55064;49.636;12.164;2024-01-06T11:09:39;3.48;99.30
68248;SHT30;55064;49.636;12.164;2024-01-06T11:12:07;3.54;99.15
68248;SHT30;55064;49.636;12.164;2024-01-06T11:14:37;3.54;99.28
68248;SHT30;55064;49.636;12.164;2024-01-06T11:17:03;3.52;99.16
68248;SHT30;55064;49.636;12.164;2024-01-06T11:24:47;3.54;99.20
68248;SHT30;55064;49.636;12.164;2024-01-06T11:27:18;3.49;99.21
68248;SHT30;55064;49.636;12.164;2024-01-06T11:29:44;3.59;99.04
68248;SHT30;55064;49.636;12.164;2024-01-06T11:32:21;3.60;98.92
68248;SHT30;55064;49.636;12.164;2024-01-06T11:34:50;3.69;98.41
68248;SHT30;55064;49.636;12.164;2024-01-06T11:37:24;3.79;97.92
68248;SHT30;55064;49.636;12.164;2024-01-06T11:39:50;3.77;97.92
68248;SHT30;55064;49.636;12.164;2024-01-06T11:42:15;3.79;98.05
68248;SHT30;55064;49.636;12.164;2024-01-06T11:44:44;3.83;97.88
68248;SHT30;55064;49.636;12.164;2024-01-06T11:47:12;3.84;97.92
68248;SHT30;55064;49.636;12.164;2024-01-06T11:49:38;3.76;97.74
68248;SHT30;55064;49.636;12.164;2024-01-06T11:52:03;3.77;97.89
68248;SHT30;55064;49.636;12.164;2024-01-06T11:54:29;3.80;97.81
68248;SHT30;55064;49.636;12.164;2024-01-06T11:56:55;3.77;97.73
68248;SHT30;55064;49.636;12.164;2024-01-06T11:59:22;3.83;97.69
68248;SHT30;55064;49.636;12.164;2024-01-06T12:01:48;3.90;97.65
68248;SHT30;55064;49.636;12.164;2024-01-06T12:04:14;3.86;97.51
68248;SHT30;55064;49.636;12.164;2024-01-06T12:06:40;3.79;97.67
68248;SHT30;55064;49.636;12.164;2024-01-06T12:09:07;3.79;97.70
68248;SHT30;55064;49.636;12.164;2024-01-06T12:11:32;3.77;97.66
68248;SHT30;55064;49.636;12.164;2024-01-06T12:13:58;3.79;97.63
68248;SHT30;55064;49.636;12.164;2024-01-06T12:16:24;3.83;97.73
68248;SHT30;55064;49.636;12.164;2024-01-06T12:18:53;3.82;97.70
68248;SHT30;55064;49.636;12.164;2024-01-06T12:21:22;3.86;97.56
68248;SHT30;55064;49.636;12.164;2024-01-06T12:23:47;3.87;97.76
68248;SHT30;55064;49.636;12.164;2024-01-06T12:26:13;3.90;97.74
68248;SHT30;55064;49.636;12.164;2024-01-06T12:28:38;3.91;97.21
68248;SHT30;55064;49.636;12.164;2024-01-06T12:31:04;3.97;97.22
68248;SHT30;55064;49.636;12.164;2024-01-06T12:33:30;3.93;97.38
68248;SHT30;55064;49.636;12.164;2024-01-06T12:35:57;4.00;97.37
68248;SHT30;55064;49.636;12.164;2024-01-06T12:38:24;4.00;97.13
68248;SHT30;55064;49.636;12.164;2024-01-06T12:40:52;4.00;97.10
68248;SHT30;55064;49.636;12.164;2024-01-06T12:43:19;4.11;96.82
68248;SHT30;55064;49.636;12.164;2024-01-06T12:45:44;4.08;96.83
68248;SHT30;55064;49.636;12.164;2024-01-06T12:48:10;4.10;96.83
68248;SHT30;55064;49.636;12.164;2024-01-06T12:50:36;4.18;96.73
68248;SHT30;55064;49.636;12.164;2024-01-06T12:53:02;4.25;96.49
68248;SHT30;55064;49.636;12.164;2024-01-06T12:55:27;4.25;96.50
68248;SHT30;55064;49.636;12.164;2024-01-06T12:57:53;4.34;96.18
68248;SHT30;55064;49.636;12.164;2024-01-06T13:00:19;4.31;95.89
68248;SHT30;55064;49.636;12.164;2024-01-06T13:02:44;4.27;96.05
68248;SHT30;55064;49.636;12.164;2024-01-06T13:05:10;4.31;96.10
68248;SHT30;55064;49.636;12.164;2024-01-06T13:07:36;4.32;95.98
68248;SHT30;55064;49.636;12.164;2024-01-06T13:10:01;4.41;95.32
68248;SHT30;55064;49.636;12.164;2024-01-06T13:12:26;4.41;95.49
68248;SHT30;55064;49.636;12.164;2024-01-06T13:14:54;4.39;95.57
68248;SHT30;55064;49.636;12.164;2024-01-06T13:17:19;4.38;95.54
68248;SHT30;55064;49.636;12.164;2024-01-06T13:19:45;4.35;95.45
68248;SHT30;55064;49.636;12.164;2024-01-06T13:22:10;4.28;95.39
68248;SHT30;55064;49.636;12.164;2024-01-06T13:24:36;4.32;95.24
68248;SHT30;55064;49.636;12.164;2024-01-06T13:27:01;4.37;95.33
68248;SHT30;55064;49.636;12.164;2024-01-06T13:29:29;4.38;95.32
68248;SHT30;55064;49.636;12.164;2024-01-06T13:31:54;4.42;95.15
68248;SHT30;55064;49.636;12.164;2024-01-06T13:34:20;4.46;94.94
68248;SHT30;55064;49.636;12.164;2024-01-06T13:36:46;4.48;94.60
68248;SHT30;55064;49.636;12.164;2024-01-06T13:39:11;4.49;94.57
68248;SHT30;55064;49.636;12.164;2024-01-06T13:41:46;4.50;94.74
68248;SHT30;55064;49.636;12.164;2024-01-06T13:44:13;4.45;94.70
68248;SHT30;55064;49.636;12.164;2024-01-06T13:46:38;4.45;94.66
68248;SHT30;55064;49.636;12.164;2024-01-06T13:49:05;4.45;94.69
68248;SHT30;55064;49.636;12.164;2024-01-06T13:51:31;4.45;94.69
68248;SHT30;55064;49.636;12.164;2024-01-06T13:53:56;4.44;94.77
68248;SHT30;55064;49.636;12.164;2024-01-06T13:56:22;4.39;94.95
68248;SHT30;55064;49.636;12.164;2024-01-06T13:58:48;4.46;94.45
68248;SHT30;55064;49.636;12.164;2024-01-06T14:01:13;4.44;94.38
68248;SHT30;55064;49.636;12.164;2024-01-06T14:03:39;4.46;94.43
68248;SHT30;55064;49.636;12.164;2024-01-06T14:06:04;4.41;94.66
68248;SHT30;55064;49.636;12.164;2024-01-06T14:08:31;4.37;94.86
68248;SHT30;55064;49.636;12.164;2024-01-06T14:10:56;4.41;94.82
68248;SHT30;55064;49.636;12.164;2024-01-06T14:13:22;4.39;94.76
68248;SHT30;55064;49.636;12.164;2024-01-06T14:15:47;4.44;94.77
68248;SHT30;55064;49.636;12.164;2024-01-06T14:18:13;4.39;94.86
68248;SHT30;55064;49.636;12.164;2024-01-06T14:20:41;4.35;94.90
68248;SHT30;55064;49.636;12.164;2024-01-06T14:23:06;4.34;94.94
68248;SHT30;55064;49.636;12.164;2024-01-06T14:25:32;4.32;94.95
68248;SHT30;55064;49.636;12.164;2024-01-06T14:27:57;4.31;95.16
68248;SHT30;55064;49.636;12.164;2024-01-06T14:30:22;4.27;95.27
68248;SHT30;55064;49.636;12.164;2024-01-06T14:32:48;4.28;95.24
68248;SHT30;55064;49.636;12.164;2024-01-06T14:35:13;4.32;95.13
68248;SHT30;55064;49.636;12.164;2024-01-06T14:37:39;4.28;95.10
68248;SHT30;55064;49.636;12.164;2024-01-06T14:40:06;4.37;95.03
68248;SHT30;55064;49.636;12.164;2024-01-06T14:42:32;4.34;94.94
68248;SHT30;55064;49.636;12.164;2024-01-06T14:45:01;4.29;94.95
68248;SHT30;55064;49.636;12.164;2024-01-06T14:47:26;4.22;95.20
68248;SHT30;55064;49.636;12.164;2024-01-06T14:49:52;4.12;95.60
68248;SHT30;55064;49.636;12.164;2024-01-06T14:52:18;4.12;95.59
68248;SHT30;55064;49.636;12.164;2024-01-06T14:54:43;4.07;95.75
68248;SHT30;55064;49.636;12.164;2024-01-06T14:57:09;4.05;95.95
68248;SHT30;55064;49.636;12.164;2024-01-06T14:59:34;4.05;95.86
68248;SHT30;55064;49.636;12.164;2024-01-06T15:02:02;3.94;96.40
68248;SHT30;55064;49.636;12.164;2024-01-06T15:04:27;3.89;96.65
68248;SHT30;55064;49.636;12.164;2024-01-06T15:06:54;3.84;96.85
68248;SHT30;55064;49.636;12.164;2024-01-06T15:09:19;3.77;97.31
68248;SHT30;55064;49.636;12.164;2024-01-06T15:11:46;3.69;97.70
68248;SHT30;55064;49.636;12.164;2024-01-06T15:14:11;3.63;97.69
68248;SHT30;55064;49.636;12.164;2024-01-06T15:16:37;3.62;97.90
68248;SHT30;55064;49.636;12.164;2024-01-06T15:19:03;3.55;98.14
68248;SHT30;55064;49.636;12.164;2024-01-06T15:21:28;3.51;98.33
68248;SHT30;55064;49.636;12.164;2024-01-06T15:23:58;3.51;98.32
68248;SHT30;55064;49.636;12.164;2024-01-06T15:26:24;3.46;98.45